Time;durP1;ratioP1;P1;durP2;ratioP2;P2;SDS_P1;SDS_P2;PMS_P1;PMS_P2;Temp;Humidity;BMP_temperature;BMP_pressure;BME280_temperature;BME280_humidity;BME280_pressure;Samples;Min_cycle;Max_cycle;Signal;HPM_P1;HPM_P2
2021/01/22 00:00:22;;;;;;;;;;;;;;;;;;;;;
2021/01/22 00:06:24;;;;;;;1.75;0.80;;;7.50;91.60;;;;;;5034321;28;20522;-91
2021/01/22 00:09:01;;;;;;;0.75;0.70;;;7.30;91.40;;;;;;5045042;28;20038;-89
2021/01/22 00:11:59;;;;;;;0.85;0.75;;;7.20;91.30;;;;;;5050735;28;20110;-90
2021/01/22 00:14:48;;;;;;;0.77;0.77;;;7.00;91.30;;;;;;5048106;28;20056;-93
2021/01/22 00:17:40;;;;;;;0.77;0.73;;;6.90;91.20;;;;;;5035098;28;20266;-89
2021/01/22 00:20:22;;;;;;;0.70;0.70;;;6.70;91.40;;;;;;5029232;28;20120;-89
2021/01/22 00:23:31;;;;;;;1.50;0.90;;;6.60;91.20;;;;;;5032023;28;20033;-90
2021/01/22 00:26:09;;;;;;;0.85;0.85;;;6.50;91.20;;;;;;5038676;28;20029;-90
2021/01/22 00:29:09;;;;;;;1.10;0.90;;;6.40;91.20;;;;;;5065150;28;20041;-90
2021/01/22 00:31:42;;;;;;;0.82;0.80;;;6.30;91.20;;;;;;5033748;28;20037;-90
2021/01/22 00:34:35;;;;;;;1.23;1.13;;;6.20;91.30;;;;;;5049669;28;20060;-91
2021/01/22 00:37:42;;;;;;;1.40;1.00;;;6.10;91.30;;;;;;5037434;28;20025;-91
2021/01/22 00:40:41;;;;;;;;;;;;;;;;;;;;;
2021/01/22 00:43:35;;;;;;;;;;;;;;;;;;;;;
2021/01/22 00:46:30;;;;;;;1.10;1.00;;;6.00;91.40;;;;;;5037897;28;20037;-90
2021/01/22 00:49:18;;;;;;;1.17;1.00;;;6.00;91.40;;;;;;5033855;28;20510;-90
2021/01/22 00:51:46;;;;;;;1.00;0.90;;;5.90;91.40;;;;;;5033483;28;20116;-91
2021/01/22 00:54:26;;;;;;;;;;;;;;;;;;;;;
2021/01/22 00:57:20;;;;;;;0.77;0.68;;;5.90;91.40;;;;;;5050509;28;20055;-90
2021/01/22 01:00:26;;;;;;;;;;;;;;;;;;;;;
2021/01/22 01:03:08;;;;;;;1.38;0.88;;;5.70;91.10;;;;;;5027631;28;20044;-90
2021/01/22 01:05:58;;;;;;;;;;;;;;;;;;;;;
2021/01/22 01:08:47;;;;;;;1.25;1.00;;;5.60;91.00;;;;;;5049346;28;20041;-89
2021/01/22 01:11:35;;;;;;;1.45;1.10;;;5.50;91.10;;;;;;5052678;28;20075;-91
2021/01/22 01:14:13;;;;;;;;;;;;;;;;;;;;;
2021/01/22 01:16:57;;;;;;;0.93;0.90;;;5.40;91.00;;;;;;5037445;28;20021;-90
2021/01/22 01:19:55;;;;;;;1.25;0.90;;;5.40;91.10;;;;;;5039825;28;20431;-89
2021/01/22 01:26:23;;;;;;;1.13;0.90;;;5.30;91.10;;;;;;5034948;28;20029;-89
2021/01/22 01:29:28;;;;;;;;;;;;;;;;;;;;;
2021/01/22 01:32:15;;;;;;;;;;;;;;;;;;;;;
2021/01/22 01:35:00;;;;;;;2.00;0.90;;;5.40;91.10;;;;;;5042893;28;20033;-90
2021/01/22 01:38:06;;;;;;;2.13;0.90;;;5.30;91.10;;;;;;5017566;28;20040;-90
2021/01/22 01:40:44;;;;;;;0.93;0.73;;;5.40;91.20;;;;;;5051183;28;20033;-92
2021/01/22 01:43:35;;;;;;;1.17;1.00;;;5.30;91.20;;;;;;5036078;28;20064;-91
2021/01/22 01:46:52;;;;;;;1.60;1.10;;;5.30;91.20;;;;;;5023254;28;20139;-90
2021/01/22 01:49:31;;;;;;;1.73;1.17;;;5.40;91.30;;;;;;5032503;28;20055;-89
2021/01/22 01:55:21;;;;;;;1.83;1.70;;;5.30;91.30;;;;;;5051245;28;20040;-88
2021/01/22 01:58:33;;;;;;;2.10;1.85;;;5.30;91.30;;;;;;5016053;28;20076;-89
2021/01/22 02:08:26;;;;;;;3.15;2.45;;;5.30;91.30;;;;;;5015393;28;20041;-89
2021/01/22 02:10:57;;;;;;;2.70;2.22;;;5.30;91.40;;;;;;5014425;28;20048;-88
2021/01/22 02:13:58;;;;;;;2.85;2.42;;;5.30;91.30;;;;;;5034649;28;20451;-90
2021/01/22 02:16:54;;;;;;;;;;;;;;;;;;;;;
2021/01/22 02:23:43;;;;;;;;;;;;;;;;;;;;;
2021/01/22 02:26:19;;;;;;;;;;;;;;;;;;;;;
2021/01/22 02:28:50;;;;;;;3.42;2.65;;;5.30;91.40;;;;;;5009763;28;20037;-89
2021/01/22 02:31:48;;;;;;;5.45;2.97;;;5.30;91.40;;;;;;5029160;28;20033;-91
2021/01/22 02:34:37;;;;;;;;;;;;;;;;;;;;;
2021/01/22 02:37:34;;;;;;;3.85;3.08;;;5.20;91.40;;;;;;5027312;28;20033;-90
2021/01/22 02:40:17;;;;;;;;;;;;;;;;;;;;;
2021/01/22 02:43:16;;;;;;;;;;;;;;;;;;;;;
2021/01/22 02:46:05;;;;;;;5.18;4.28;;;5.30;91.40;;;;;;5010975;28;20389;-90
2021/01/22 02:49:14;;;;;;;5.70;4.05;;;5.30;91.40;;;;;;5024256;28;20046;-89
2021/01/22 02:52:00;;;;;;;;;;;;;;;;;;;;;
2021/01/22 02:55:12;;;;;;;5.43;4.25;;;5.20;91.40;;;;;;5005150;28;20048;-89
2021/01/22 02:57:58;;;;;;;6.60;3.97;;;5.20;91.50;;;;;;5032383;28;20497;-90
2021/01/22 03:00:46;;;;;;;7.63;4.75;;;5.20;91.50;;;;;;5018180;28;20083;-90
2021/01/22 03:04:27;;;;;;;7.55;4.65;;;5.20;91.50;;;;;;5014362;28;20029;-90
2021/01/22 03:06:50;;;;;;;;;;;;;;;;;;;;;
2021/01/22 03:12:53;;;;;;;7.15;5.38;;;5.10;91.40;;;;;;5015158;28;20074;-89
2021/01/22 03:15:46;;;;;;;7.10;5.30;;;5.10;91.40;;;;;;5023598;28;20073;-90
2021/01/22 03:18:34;;;;;;;6.68;4.93;;;5.10;91.40;;;;;;5033683;28;20033;-90
2021/01/22 03:21:09;;;;;;;6.45;4.90;;;5.10;91.50;;;;;;5018025;28;20033;-90
2021/01/22 03:23:58;;;;;;;6.70;4.45;;;5.10;91.50;;;;;;5002215;28;20026;-89
2021/01/22 03:26:57;;;;;;;6.80;4.60;;;5.00;91.40;;;;;;4993966;28;20069;-89
2021/01/22 03:29:34;;;;;;;5.68;4.50;;;5.00;91.40;;;;;;5017936;28;20081;-90
2021/01/22 03:32:04;;;;;;;4.63;4.10;;;5.00;91.50;;;;;;5017572;28;20091;-90
2021/01/22 03:35:07;;;;;;;;;;;;;;;;;;;;;
2021/01/22 03:37:52;;;;;;;5.57;4.10;;;5.00;91.50;;;;;;5029441;28;20040;-88
2021/01/22 03:40:56;;;;;;;;;;;;;;;;;;;;;
2021/01/22 03:43:50;;;;;;;6.30;4.18;;;5.00;91.60;;;;;;5022934;28;20476;-90
2021/01/22 03:46:22;;;;;;;4.70;3.72;;;5.00;91.60;;;;;;5001001;28;20029;-90
2021/01/22 03:52:05;;;;;;;4.63;3.45;;;5.00;91.60;;;;;;4988095;28;20065;-89
2021/01/22 03:55:05;;;;;;;3.70;3.20;;;5.00;91.60;;;;;;5006525;28;20041;-89
2021/01/22 04:00:52;;;;;;;3.90;3.00;;;5.00;91.60;;;;;;5004700;28;20067;-88
2021/01/22 04:04:06;;;;;;;;;;;;;;;;;;;;;
2021/01/22 04:07:13;;;;;;;5.53;2.83;;;4.90;91.60;;;;;;5023212;28;20022;-90
2021/01/22 04:10:08;;;;;;;5.03;2.70;;;4.90;91.60;;;;;;5017069;28;20393;-88
2021/01/22 04:13:02;;;;;;;4.65;2.60;;;4.90;91.60;;;;;;4995397;28;20038;-90
2021/01/22 04:15:40;;;;;;;3.85;2.60;;;4.90;91.60;;;;;;5019269;28;20034;-88
2021/01/22 04:18:19;;;;;;;4.15;2.58;;;4.90;91.60;;;;;;5016706;28;20038;-89
2021/01/22 04:21:01;;;;;;;4.28;2.03;;;4.90;91.60;;;;;;5029463;28;20508;-89
2021/01/22 04:23:47;;;;;;;;;;;;;;;;;;;;;
2021/01/22 04:26:41;;;;;;;4.18;2.38;;;4.90;91.60;;;;;;5022699;28;20038;-92
2021/01/22 04:29:24;;;;;;;2.85;2.20;;;4.80;91.50;;;;;;5014108;28;20029;-90
2021/01/22 04:34:51;;;;;;;3.17;2.03;;;4.80;91.50;;;;;;5014560;28;20074;-88
2021/01/22 04:37:39;;;;;;;3.10;2.45;;;4.80;91.50;;;;;;4986526;28;20120;-88
2021/01/22 04:45:54;;;;;;;4.15;2.47;;;4.70;91.50;;;;;;5005328;28;20081;-89
2021/01/22 04:48:40;;;;;;;4.95;2.85;;;4.70;91.50;;;;;;5015508;28;20045;-90
2021/01/22 04:51:21;;;;;;;3.75;2.55;;;4.70;91.50;;;;;;4998369;28;20433;-89
2021/01/22 04:54:05;;;;;;;4.55;2.85;;;4.70;91.50;;;;;;5016866;28;20124;-91
2021/01/22 04:56:51;;;;;;;3.78;3.03;;;4.70;91.60;;;;;;5019784;28;20066;-89
2021/01/22 04:59:48;;;;;;;4.10;2.85;;;4.70;91.60;;;;;;5015961;28;20042;-88
2021/01/22 05:02:40;;;;;;;3.80;3.05;;;4.70;91.60;;;;;;4956510;28;20401;-89
2021/01/22 05:05:28;;;;;;;4.43;3.45;;;4.70;91.60;;;;;;4984763;28;20030;-89
2021/01/22 05:11:17;;;;;;;6.07;3.72;;;4.70;91.70;;;;;;4959094;28;20042;-88
2021/01/22 05:14:18;;;;;;;5.25;4.40;;;4.60;91.70;;;;;;5025364;28;20025;-88
2021/01/22 05:17:01;;;;;;;5.82;4.60;;;4.70;91.80;;;;;;5007050;28;20079;-88
2021/01/22 05:19:41;;;;;;;;;;;;;;;;;;;;;
2021/01/22 05:22:26;;;;;;;7.82;6.00;;;4.70;91.80;;;;;;5020231;28;20038;-88
2021/01/22 05:25:01;;;;;;;7.20;6.25;;;4.70;91.80;;;;;;5006149;28;20038;-88
2021/01/22 05:27:55;;;;;;;12.30;8.18;;;4.70;92.10;;;;;;5029570;28;20492;-89
2021/01/22 05:30:54;;;;;;;9.50;7.82;;;4.70;91.80;;;;;;5016007;28;20121;-89
2021/01/22 05:36:51;;;;;;;13.48;9.00;;;4.70;91.80;;;;;;5012877;28;20056;-88
2021/01/22 05:40:03;;;;;;;14.07;9.98;;;4.70;91.80;;;;;;5029417;28;20026;-89
2021/01/22 05:42:57;;;;;;;13.48;9.13;;;4.70;91.80;;;;;;4990556;28;20038;-89
2021/01/22 05:49:35;;;;;;;12.00;9.25;;;4.60;91.80;;;;;;5002481;28;20434;-89
2021/01/22 05:55:32;;;;;;;13.25;9.85;;;4.70;91.90;;;;;;5015157;28;20038;-89
2021/01/22 05:58:30;;;;;;;;;;;;;;;;;;;;;
2021/01/22 06:01:35;;;;;;;13.40;10.77;;;4.60;91.90;;;;;;5031181;28;20026;-89
2021/01/22 06:04:29;;;;;;;;;;;;;;;;;;;;;
2021/01/22 06:10:41;;;;;;;14.35;11.25;;;4.70;92.00;;;;;;5006864;28;20026;-89
2021/01/22 06:13:27;;;;;;;15.90;11.75;;;4.70;92.00;;;;;;4999272;28;20037;-89
2021/01/22 06:19:19;;;;;;;16.80;12.43;;;4.70;92.00;;;;;;5004787;28;20037;-91
2021/01/22 06:22:51;;;;;;;;;;;;;;;;;;;;;
2021/01/22 06:25:36;;;;;;;15.63;11.82;;;4.70;92.00;;;;;;5009282;28;20048;-92
2021/01/22 06:28:23;;;;;;;;;;;;;;;;;;;;;
2021/01/22 06:31:06;;;;;;;18.92;12.98;;;4.70;92.00;;;;;;4997317;28;20170;-88
2021/01/22 06:34:06;;;;;;;16.95;12.70;;;4.70;92.00;;;;;;5031664;28;20457;-88
2021/01/22 06:37:16;;;;;;;18.95;13.43;;;4.70;92.00;;;;;;5019255;28;20121;-90
2021/01/22 06:40:02;;;;;;;17.17;12.40;;;4.70;92.00;;;;;;5016331;28;20029;-89
2021/01/22 06:42:55;;;;;;;18.73;13.13;;;4.70;92.00;;;;;;5027227;28;20053;-89
2021/01/22 06:45:41;;;;;;;17.35;12.57;;;4.70;92.00;;;;;;5008204;28;20025;-89
2021/01/22 06:48:17;;;;;;;15.48;12.43;;;4.70;92.00;;;;;;5019274;28;20057;-90
2021/01/22 06:51:31;;;;;;;;;;;;;;;;;;;;;
2021/01/22 06:57:30;;;;;;;15.93;11.52;;;4.60;91.90;;;;;;5017828;28;20171;-90
2021/01/22 07:00:43;;;;;;;14.80;12.23;;;4.60;91.90;;;;;;5006591;28;20034;-91
2021/01/22 07:06:48;;;;;;;;;;;;;;;;;;;;;
2021/01/22 07:09:48;;;;;;;;;;;;;;;;;;;;;
2021/01/22 07:13:05;;;;;;;;;;;;;;;;;;;;;
2021/01/22 07:15:26;;;;;;;18.67;11.93;;;4.50;92.00;;;;;;5027295;28;20108;-89
2021/01/22 07:18:20;;;;;;;15.55;12.65;;;4.50;92.00;;;;;;5011225;28;20057;-90
2021/01/22 07:21:37;;;;;;;;;;;;;;;;;;;;;
2021/01/22 07:24:17;;;;;;;15.68;11.85;;;4.50;92.00;;;;;;5026444;28;20028;-90
2021/01/22 07:27:23;;;;;;;15.93;11.57;;;4.50;92.00;;;;;;5027767;28;20017;-90
2021/01/22 07:30:36;;;;;;;20.20;11.77;;;4.50;92.00;;;;;;4997438;28;20026;-89
2021/01/22 07:33:38;;;;;;;15.15;11.25;;;4.40;92.00;;;;;;5017154;28;20465;-88
2021/01/22 07:36:58;;;;;;;15.65;11.38;;;4.50;92.30;;;;;;5011328;28;20037;-88
2021/01/22 07:43:40;;;;;;;;;;;;;;;;;;;;;
2021/01/22 07:53:36;;;;;;;;;;;;;;;;;;;;;
2021/01/22 07:56:53;;;;;;;;;;;;;;;;;;;;;
2021/01/22 08:02:56;;;;;;;;;;;;;;;;;;;;;
2021/01/22 08:05:57;;;;;;;;;;;;;;;;;;;;;
2021/01/22 08:08:48;;;;;;;14.23;9.93;;;4.40;92.20;;;;;;5062467;28;20045;-90
2021/01/22 08:12:14;;;;;;;;;;;;;;;;;;;;;
2021/01/22 08:18:50;;;;;;;;;;;;;;;;;;;;;
2021/01/22 08:28:54;;;;;;;;;;;;;;;;;;;;;
2021/01/22 08:31:53;;;;;;;;;;;;;;;;;;;;;
2021/01/22 08:37:55;;;;;;;14.02;9.38;;;4.50;92.30;;;;;;5034455;28;20051;-87
2021/01/22 08:41:02;;;;;;;14.02;9.00;;;4.50;92.30;;;;;;5036193;28;20069;-88
2021/01/22 08:43:57;;;;;;;;;;;;;;;;;;;;;
2021/01/22 08:46:57;;;;;;;13.23;8.52;;;4.50;92.30;;;;;;5046285;28;20035;-88
2021/01/22 08:50:05;;;;;;;;;;;;;;;;;;;;;
2021/01/22 08:53:20;;;;;;;13.73;8.18;;;4.50;92.30;;;;;;5050861;28;20116;-88
2021/01/22 08:56:33;;;;;;;11.70;8.20;;;4.60;92.30;;;;;;5045779;28;20029;-88
2021/01/22 08:59:31;;;;;;;13.93;8.05;;;4.60;92.40;;;;;;5019376;28;20120;-88
2021/01/22 09:05:16;;;;;;;13.18;7.75;;;4.60;92.40;;;;;;5049042;28;20048;-88
2021/01/22 09:08:30;;;;;;;11.15;6.95;;;4.70;92.40;;;;;;5042005;28;20033;-88
2021/01/22 09:21:49;;;;;;;13.23;7.60;;;4.70;92.30;;;;;;5041037;28;20029;-87
2021/01/22 09:25:11;;;;;;;10.75;7.15;;;4.70;92.30;;;;;;5048931;28;20041;-88
2021/01/22 09:28:28;;;;;;;;;;;;;;;;;;;;;
2021/01/22 09:31:33;;;;;;;21.95;13.43;;;4.80;92.30;;;;;;5057195;28;20025;-89
2021/01/22 09:34:25;;;;;;;15.90;9.90;;;4.80;92.30;;;;;;5046188;28;20391;-88
2021/01/22 09:40:30;;;;;;;10.02;7.05;;;4.80;92.40;;;;;;5026195;28;20037;-88
2021/01/22 09:43:51;;;;;;;13.98;7.30;;;4.90;92.40;;;;;;5038263;28;20033;-89
2021/01/22 09:46:57;;;;;;;11.00;6.85;;;4.90;92.30;;;;;;5045059;28;20037;-88
2021/01/22 09:49:46;;;;;;;10.43;7.15;;;4.90;92.30;;;;;;5047004;28;20048;-89
2021/01/22 09:53:02;;;;;;;12.15;7.60;;;4.90;92.30;;;;;;5044892;28;20123;-88
2021/01/22 10:02:35;;;;;;;;;;;;;;;;;;;;;
2021/01/22 10:11:29;;;;;;;;;;;;;;;;;;;;;
2021/01/22 10:17:37;;;;;;;9.88;7.05;;;5.10;92.30;;;;;;5039850;28;20060;-87
2021/01/22 10:21:02;;;;;;;;;;;;;;;;;;;;;
2021/01/22 10:27:37;;;;;;;;;;;;;;;;;;;;;
2021/01/22 10:33:35;;;;;;;;;;;;;;;;;;;;;
2021/01/22 10:36:45;;;;;;;10.52;6.30;;;5.30;92.20;;;;;;5036360;28;20025;-89
2021/01/22 10:42:42;;;;;;;10.27;6.88;;;5.40;92.20;;;;;;5024034;28;20034;-89
2021/01/22 10:45:46;;;;;;;10.95;6.18;;;5.50;92.20;;;;;;5056764;28;20018;-88
2021/01/22 10:48:26;;;;;;;10.68;6.43;;;5.50;92.20;;;;;;5051150;28;20615;-89
2021/01/22 10:51:50;;;;;;;12.73;6.37;;;5.60;92.20;;;;;;5056777;28;20029;-89
2021/01/22 11:16:42;;;;;;;12.88;5.40;;;6.20;92.10;;;;;;5016960;28;20107;-91
2021/01/22 11:20:03;;;;;;;9.63;4.82;;;6.20;92.00;;;;;;5037236;28;20034;-89
2021/01/22 11:25:58;;;;;;;;;;;;;;;;;;;;;
2021/01/22 11:28:52;;;;;;;11.02;5.78;;;6.30;91.90;;;;;;5049573;28;20037;-88
2021/01/22 11:35:09;;;;;;;11.07;5.25;;;6.20;91.80;;;;;;5038617;28;20044;-90
2021/01/22 11:41:30;;;;;;;;;;;;;;;;;;;;;
2021/01/22 11:44:56;;;;;;;9.83;4.40;;;6.20;91.80;;;;;;5030270;28;20112;-88
2021/01/22 11:47:40;;;;;;;;;;;;;;;;;;;;;
2021/01/22 11:50:19;;;;;;;8.63;4.50;;;6.30;91.70;;;;;;5045733;28;20029;-90
2021/01/22 11:53:13;;;;;;;;;;;;;;;;;;;;;
2021/01/22 11:56:12;;;;;;;10.45;3.95;;;6.40;91.60;;;;;;5037327;28;20055;-88
2021/01/22 11:58:43;;;;;;;7.78;4.45;;;6.40;91.50;;;;;;5049841;28;20055;-89
2021/01/22 12:01:19;;;;;;;8.43;4.10;;;6.40;91.50;;;;;;5035267;28;20048;-89
2021/01/22 12:03:52;;;;;;;9.00;4.20;;;6.50;91.50;;;;;;5030895;28;20041;-89
2021/01/22 12:06:29;;;;;;;10.05;3.80;;;6.50;91.40;;;;;;5050866;28;20029;-89
2021/01/22 12:09:13;;;;;;;;;;;;;;;;;;;;;
2021/01/22 12:12:28;;;;;;;;;;;;;;;;;;;;;
2021/01/22 12:16:09;;;;;;;;;;;;;;;;;;;;;
2021/01/22 12:21:46;;;;;;;9.05;3.22;;;6.80;91.00;;;;;;4978274;28;20150;-89
2021/01/22 12:41:37;;;;;;;9.65;3.90;;;6.90;90.50;;;;;;4915056;29;20044;-87
2021/01/22 12:44:52;;;;;;;10.27;3.60;;;6.90;90.50;;;;;;4934189;29;20395;-90
2021/01/22 12:47:46;;;;;;;12.18;4.15;;;6.90;90.40;;;;;;4901739;29;21259;-90
2021/01/22 12:50:48;;;;;;;;;;;;;;;;;;;;;
2021/01/22 13:01:12;;;;;;;;;;;;;;;;;;;;;
2021/01/22 13:04:00;;;;;;;;;;;;;;;;;;;;;
2021/01/22 13:06:57;;;;;;;9.07;3.42;;;6.90;89.80;;;;;;5002712;28;20029;-89
2021/01/22 13:09:41;;;;;;;6.55;3.00;;;6.90;89.50;;;;;;5020245;28;20042;-89
2021/01/22 13:12:55;;;;;;;;;;;;;;;;;;;;;
2021/01/22 13:15:46;;;;;;;9.35;3.33;;;6.90;89.50;;;;;;5007462;28;20041;-90
2021/01/22 13:18:52;;;;;;;;;;;;;;;;;;;;;
2021/01/22 13:21:41;;;;;;;11.02;3.60;;;6.90;89.50;;;;;;4992236;28;20372;-90
2021/01/22 13:24:49;;;;;;;;;;;;;;;;;;;;;
2021/01/22 13:28:16;;;;;;;;;;;;;;;;;;;;;
2021/01/22 13:31:04;;;;;;;9.65;3.42;;;6.90;88.90;;;;;;5002080;28;20041;-89
2021/01/22 13:34:03;;;;;;;;;;;;;;;;;;;;;
2021/01/22 13:40:57;;;;;;;8.80;3.07;;;6.90;89.20;;;;;;4975964;28;20244;-90
2021/01/22 13:47:20;;;;;;;;;;;;;;;;;;;;;
2021/01/22 13:50:01;;;;;;;;;;;;;;;;;;;;;
2021/01/22 13:55:58;;;;;;;;;;;;;;;;;;;;;
2021/01/22 13:59:11;;;;;;;;;;;;;;;;;;;;;
2021/01/22 14:01:45;;;;;;;11.32;3.75;;;6.90;88.70;;;;;;5004399;28;20033;-89
2021/01/22 14:05:04;;;;;;;;;;;;;;;;;;;;;
2021/01/22 14:07:45;;;;;;;6.90;2.70;;;6.90;88.40;;;;;;5006264;28;20407;-87
2021/01/22 14:21:31;;;;;;;;;;;;;;;;;;;;;
2021/01/22 14:30:38;;;;;;;6.57;2.55;;;6.90;87.90;;;;;;4971363;28;20050;-89
2021/01/22 14:33:26;;;;;;;;;;;6.90;87.90;;;;;;4975090;28;20103;-88
2021/01/22 14:35:59;;;;;;;9.35;3.42;;;6.90;87.70;;;;;;5025602;28;19986;-89
2021/01/22 14:38:53;;;;;;;7.82;2.65;;;6.90;87.70;;;;;;4993491;28;20511;-88
2021/01/22 14:41:35;;;;;;;8.02;2.60;;;6.90;87.80;;;;;;5013005;28;20025;-89
2021/01/22 14:44:52;;;;;;;;;;;;;;;;;;;;;
2021/01/22 14:48:21;;;;;;;;;;;;;;;;;;;;;
2021/01/22 14:50:57;;;;;;;;;;;;;;;;;;;;;
2021/01/22 14:54:22;;;;;;;5.50;2.58;;;6.90;87.60;;;;;;5016079;28;20038;-90
2021/01/22 14:57:12;;;;;;;6.07;2.72;;;6.90;87.70;;;;;;5010435;28;20037;-90
2021/01/22 14:59:53;;;;;;;;;;;;;;;;;;;;;
2021/01/22 15:02:36;;;;;;;15.05;7.32;;;6.80;87.60;;;;;;5001242;28;20042;-88
2021/01/22 15:08:33;;;;;;;7.97;3.28;;;6.80;87.60;;;;;;4954678;28;20044;-88
2021/01/22 15:11:34;;;;;;;;;;;;;;;;;;;;;
2021/01/22 15:14:21;;;;;;;8.00;2.67;;;6.70;87.60;;;;;;5015303;28;20022;-90
2021/01/22 15:17:45;;;;;;;;;;;;;;;;;;;;;
2021/01/22 15:21:12;;;;;;;;;;;;;;;;;;;;;
2021/01/22 15:24:03;;;;;;;6.72;1.95;;;6.60;87.70;;;;;;5015278;28;20040;-89
2021/01/22 15:26:51;;;;;;;7.97;2.70;;;6.60;87.60;;;;;;4970256;28;20026;-89
2021/01/22 15:29:48;;;;;;;5.38;2.20;;;6.60;87.70;;;;;;5011654;28;20060;-88
2021/01/22 15:32:20;;;;;;;8.52;2.45;;;6.50;87.60;;;;;;5006113;28;20141;-88
2021/01/22 15:35:05;;;;;;;7.10;2.67;;;6.50;87.60;;;;;;5013573;28;20114;-88
2021/01/22 15:38:02;;;;;;;5.68;2.67;;;6.50;87.50;;;;;;5014853;28;20022;-89
2021/01/22 15:41:00;;;;;;;5.68;2.30;;;6.50;87.50;;;;;;5017143;28;20032;-91
2021/01/22 15:43:49;;;;;;;7.57;2.50;;;6.40;87.50;;;;;;5005762;28;20419;-89
2021/01/22 15:46:23;;;;;;;7.35;2.75;;;6.40;87.50;;;;;;5014329;28;20370;-87
2021/01/22 15:49:36;;;;;;;8.23;2.83;;;6.30;87.50;;;;;;4977847;28;20038;-88
2021/01/22 15:55:42;;;;;;;7.28;2.97;;;6.30;87.60;;;;;;4989084;28;20062;-89
2021/01/22 15:59:08;;;;;;;;;;;;;;;;;;;;;
2021/01/22 16:01:42;;;;;;;6.47;2.40;;;6.20;87.70;;;;;;5020505;28;20049;-86
2021/01/22 16:11:04;;;;;;;11.45;6.35;;;6.10;87.80;;;;;;5022845;28;20128;-89
2021/01/22 16:13:26;;;;;;;;;;;;;;;;;;;;;
2021/01/22 16:16:02;;;;;;;8.63;3.80;;;5.90;87.90;;;;;;5053141;28;20496;-90
2021/01/22 16:19:14;;;;;;;;;;;;;;;;;;;;;
2021/01/22 16:26:02;;;;;;;;;;;;;;;;;;;;;
2021/01/22 16:28:49;;;;;;;6.60;3.05;;;5.80;88.40;;;;;;4985457;28;20096;-88
2021/01/22 16:31:24;;;;;;;6.07;2.85;;;5.70;88.40;;;;;;4971785;28;20049;-86
2021/01/22 16:34:07;;;;;;;;;;;;;;;;;;;;;
2021/01/22 16:36:35;;;;;;;6.95;2.85;;;5.70;88.50;;;;;;5039769;28;20051;-88
2021/01/22 16:39:06;;;;;;;6.00;2.90;;;5.60;88.50;;;;;;5047869;28;20033;-86
2021/01/22 16:41:38;;;;;;;6.10;3.08;;;5.50;88.50;;;;;;5031740;28;20444;-88
2021/01/22 16:44:42;;;;;;;6.68;3.15;;;5.50;88.60;;;;;;5030810;28;20065;-86
2021/01/22 16:47:30;;;;;;;5.57;3.10;;;5.40;88.60;;;;;;5034703;28;20037;-89
2021/01/22 16:50:11;;;;;;;;;;;;;;;;;;;;;
2021/01/22 16:52:52;;;;;;;8.10;3.63;;;5.40;88.70;;;;;;5032945;28;20377;-88
2021/01/22 16:58:38;;;;;;;6.88;2.88;;;5.30;88.90;;;;;;5038363;28;20107;-89
2021/01/22 17:01:17;;;;;;;7.75;3.42;;;5.20;88.90;;;;;;5057909;28;20464;-87
2021/01/22 17:04:24;;;;;;;10.00;3.30;;;5.20;88.90;;;;;;5045099;28;20029;-89
2021/01/22 17:07:20;;;;;;;8.02;3.42;;;5.20;89.00;;;;;;5048538;28;20491;-87
2021/01/22 17:09:50;;;;;;;7.65;3.42;;;5.10;89.10;;;;;;5064260;28;20442;-87
2021/01/22 17:12:31;;;;;;;;;;;;;;;;;;;;;
2021/01/22 17:15:11;;;;;;;8.75;3.28;;;5.00;89.10;;;;;;5036983;28;20422;-88
2021/01/22 17:17:42;;;;;;;6.47;3.58;;;5.00;89.70;;;;;;5059115;28;20034;-88
2021/01/22 17:20:34;;;;;;;6.07;3.17;;;4.90;89.20;;;;;;5046885;28;20025;-87
2021/01/22 17:23:10;;;;;;;6.38;3.47;;;4.90;89.20;;;;;;5055796;28;20025;-90
2021/01/22 17:25:43;;;;;;;6.40;3.38;;;4.90;89.30;;;;;;5057235;28;20036;-89
2021/01/22 17:28:39;;;;;;;8.18;3.70;;;4.80;89.30;;;;;;5023873;28;20054;-88
2021/01/22 17:31:22;;;;;;;7.72;3.78;;;4.80;89.40;;;;;;5057580;28;20029;-89
2021/01/22 17:33:54;;;;;;;30.40;15.98;;;4.80;89.60;;;;;;5075621;28;20116;-87
2021/01/22 17:36:20;;;;;;;24.52;12.45;;;4.80;89.50;;;;;;5067731;28;20021;-87
2021/01/22 17:38:48;;;;;;;13.27;8.10;;;4.70;89.60;;;;;;5064379;28;20082;-89
2021/01/22 17:41:32;;;;;;;12.00;6.55;;;4.70;89.60;;;;;;5065107;28;20021;-91
2021/01/22 17:44:01;;;;;;;10.05;5.38;;;4.70;89.60;;;;;;5053845;28;20025;-87
2021/01/22 17:46:45;;;;;;;8.43;4.57;;;4.70;89.70;;;;;;5070204;28;20495;-89
2021/01/22 17:49:11;;;;;;;9.50;4.43;;;4.70;89.70;;;;;;5036625;28;20053;-86
2021/01/22 17:51:54;;;;;;;6.32;4.15;;;4.70;89.80;;;;;;5052108;28;20064;-86
2021/01/22 17:54:36;;;;;;;8.40;4.38;;;4.70;89.80;;;;;;5080511;28;20092;-86
2021/01/22 17:57:29;;;;;;;7.93;3.95;;;4.60;90.20;;;;;;5056366;28;20105;-88
2021/01/22 18:00:03;;;;;;;9.30;4.47;;;4.60;89.90;;;;;;5050688;28;20447;-87
2021/01/22 18:02:39;;;;;;;8.73;4.03;;;4.60;90.00;;;;;;5037513;28;20033;-87
2021/01/22 18:05:23;;;;;;;8.77;4.78;;;4.60;90.00;;;;;;5049175;28;20229;-86
2021/01/22 18:08:40;;;;;;;;;;;;;;;;;;;;;
2021/01/22 18:11:18;;;;;;;7.95;4.47;;;4.50;90.00;;;;;;5039912;28;20053;-87
2021/01/22 18:14:04;;;;;;;8.07;4.88;;;4.40;90.00;;;;;;5036817;28;20033;-88
2021/01/22 18:16:35;;;;;;;9.98;4.93;;;4.40;90.00;;;;;;5029878;28;20036;-88
2021/01/22 18:19:34;;;;;;;10.20;5.47;;;4.40;90.10;;;;;;5051655;28;20029;-87
2021/01/22 18:22:12;;;;;;;9.93;5.72;;;4.40;90.10;;;;;;5039603;28;20036;-87
2021/01/22 18:24:38;;;;;;;9.15;5.07;;;4.30;90.10;;;;;;5037975;28;20102;-88
2021/01/22 18:27:06;;;;;;;12.27;6.28;;;4.30;90.10;;;;;;5055045;28;20468;-87
2021/01/22 18:29:34;;;;;;;7.63;4.93;;;4.30;90.10;;;;;;5049531;28;20507;-86
2021/01/22 18:32:03;;;;;;;8.48;4.75;;;4.30;90.10;;;;;;5054840;28;20076;-87
2021/01/22 18:34:37;;;;;;;10.77;5.85;;;4.30;90.10;;;;;;5038013;28;20083;-86
2021/01/22 18:37:07;;;;;;;9.60;6.03;;;4.30;90.10;;;;;;5041996;28;20119;-87
2021/01/22 18:39:36;;;;;;;8.38;5.95;;;4.30;90.10;;;;;;5045657;28;20036;-89
2021/01/22 18:42:02;;;;;;;11.40;5.82;;;4.20;90.10;;;;;;5043303;28;20381;-86
2021/01/22 18:44:37;;;;;;;10.88;6.00;;;4.20;90.10;;;;;;5049503;28;20025;-87
2021/01/22 18:47:11;;;;;;;11.40;7.05;;;4.20;90.10;;;;;;5046969;28;20025;-86
2021/01/22 18:49:37;;;;;;;10.63;6.35;;;4.20;90.10;;;;;;5037887;28;20037;-87
2021/01/22 18:52:21;;;;;;;12.15;6.72;;;4.20;90.20;;;;;;5067009;28;20052;-87
2021/01/22 18:54:50;;;;;;;11.93;6.82;;;4.20;90.20;;;;;;5049456;28;20028;-88
2021/01/22 18:57:36;;;;;;;12.90;6.85;;;4.10;90.20;;;;;;5032459;28;20048;-86
2021/01/22 19:00:11;;;;;;;12.52;7.25;;;4.10;90.20;;;;;;5016292;28;20041;-86
2021/01/22 19:02:42;;;;;;;11.70;7.40;;;4.10;90.30;;;;;;5014123;28;20030;-86
2021/01/22 19:05:19;;;;;;;;;;;;;;;;;;;;;
2021/01/22 19:07:48;;;;;;;12.82;8.00;;;4.10;90.30;;;;;;5027708;28;20033;-87
2021/01/22 19:10:16;;;;;;;11.75;7.88;;;4.00;90.30;;;;;;5027964;28;20025;-86
2021/01/22 19:12:42;;;;;;;11.70;7.85;;;4.00;90.30;;;;;;5012207;28;20495;-87
2021/01/22 19:15:20;;;;;;;;;;;;;;;;;;;;;
2021/01/22 19:17:51;;;;;;;10.23;8.20;;;3.90;90.30;;;;;;5025465;28;20040;-88
2021/01/22 19:20:25;;;;;;;17.13;8.87;;;3.90;90.40;;;;;;5018226;28;20068;-87
2021/01/22 19:22:53;;;;;;;11.85;8.30;;;3.90;90.40;;;;;;5017104;28;20036;-88
2021/01/22 19:25:26;;;;;;;14.07;9.05;;;3.90;90.40;;;;;;5017717;28;20022;-87
2021/01/22 19:27:57;;;;;;;12.30;7.80;;;3.90;90.50;;;;;;5013183;28;20388;-87
2021/01/22 19:30:26;;;;;;;13.20;8.85;;;3.90;90.50;;;;;;5012215;28;20058;-86
2021/01/22 19:35:48;;;;;;;16.92;12.43;;;3.80;90.50;;;;;;5029720;28;20041;-86
2021/01/22 19:38:22;;;;;;;25.02;16.48;;;3.80;90.50;;;;;;5010508;28;20058;-87
2021/01/22 19:40:51;;;;;;;27.55;17.48;;;3.80;90.50;;;;;;5013240;28;20048;-87
2021/01/22 19:43:35;;;;;;;22.00;13.18;;;3.80;90.50;;;;;;5010654;28;20060;-88
2021/01/22 19:46:08;;;;;;;16.63;11.15;;;3.80;90.60;;;;;;5007694;28;20053;-87
2021/01/22 19:48:40;;;;;;;15.57;8.88;;;3.80;90.60;;;;;;5012266;28;20029;-87
2021/01/22 19:51:11;;;;;;;15.52;8.68;;;3.70;90.60;;;;;;5013462;28;20114;-86
2021/01/22 19:53:41;;;;;;;9.60;7.32;;;3.70;90.60;;;;;;5012518;28;20033;-87
2021/01/22 19:56:24;;;;;;;11.85;8.25;;;3.70;90.60;;;;;;5008010;28;20033;-86
2021/01/22 19:58:53;;;;;;;12.88;7.65;;;3.70;90.60;;;;;;5044087;28;20480;-87
2021/01/22 20:01:26;;;;;;;13.55;8.38;;;3.60;90.60;;;;;;5060423;28;20026;-88
2021/01/22 20:04:02;;;;;;;;;;;;;;;;;;;;;
2021/01/22 20:06:38;;;;;;;14.07;7.60;;;3.60;90.60;;;;;;5044305;28;20024;-87
2021/01/22 20:09:15;;;;;;;11.68;7.30;;;3.60;90.60;;;;;;5032974;28;20094;-88
2021/01/22 20:11:47;;;;;;;10.23;7.18;;;3.60;90.70;;;;;;5058919;28;20026;-87
2021/01/22 20:14:16;;;;;;;11.88;7.22;;;3.50;90.60;;;;;;5047705;28;20060;-85
2021/01/22 20:17:00;;;;;;;12.27;7.55;;;3.50;90.60;;;;;;5050803;28;20044;-89
2021/01/22 20:19:29;;;;;;;11.13;7.32;;;3.50;90.70;;;;;;5066368;28;20052;-87
2021/01/22 20:22:00;;;;;;;9.80;6.72;;;3.50;90.70;;;;;;5066686;28;20079;-87
2021/01/22 20:24:56;;;;;;;11.70;6.97;;;3.50;90.70;;;;;;5049744;28;20033;-87
2021/01/22 20:27:30;;;;;;;9.43;6.75;;;3.40;90.70;;;;;;5035217;28;20443;-87
2021/01/22 20:30:08;;;;;;;;;;;;;;;;;;;;;
2021/01/22 20:32:42;;;;;;;14.45;7.97;;;3.50;90.80;;;;;;5044647;28;20043;-86
2021/01/22 20:35:08;;;;;;;11.07;7.63;;;3.40;90.80;;;;;;5037943;28;20052;-87
2021/01/22 20:37:39;;;;;;;11.60;7.28;;;3.40;90.80;;;;;;5060913;28;20037;-87
2021/01/22 20:40:14;;;;;;;12.13;7.40;;;3.40;90.80;;;;;;5058917;28;20030;-87
2021/01/22 20:42:48;;;;;;;13.80;7.82;;;3.40;90.80;;;;;;5066479;28;20096;-86
2021/01/22 20:45:19;;;;;;;13.15;7.55;;;3.40;90.90;;;;;;5059787;28;20033;-88